Aviation Digital Data Service (ADDS)

Output produced by TAFs form (2238 UTC 11 December 2017)
found at http://www.aviationweather.gov/adds/tafs/
 
KGNV 112153Z AUTO 26005KT 10SM CLR 14/M01 A3017 RMK AO2 SLP218 T01391011
KGNV 111757Z 1118/1218 26006KT P6SM SKC 
     FM112300 22002KT P6SM SCT250 
     FM120900 23002KT 5SM BR FEW020 SCT250 
     FM121500 26011G22KT P6SM SCT030 SCT250